Time;durP1;ratioP1;P1;durP2;ratioP2;P2;SDS_P1;SDS_P2;PMS_P1;PMS_P2;Temp;Humidity;BMP_temperature;BMP_pressure;BME280_temperature;BME280_humidity;BME280_pressure;Samples;Min_cycle;Max_cycle;Signal;HPM_P1;HPM_P2
2023/04/13 00:00:59;;;;;;;5.20;1.98;;;7.00;99.90;;;;;;5093463;28;20035;-71
2023/04/13 00:03:24;;;;;;;4.28;1.95;;;7.00;99.90;;;;;;5091990;28;20036;-71
2023/04/13 00:05:52;;;;;;;2.65;1.70;;;7.00;99.90;;;;;;5092023;28;20506;-71
2023/04/13 00:08:21;;;;;;;4.05;1.92;;;7.10;99.90;;;;;;5092218;28;20564;-71
2023/04/13 00:10:47;;;;;;;3.90;2.03;;;7.10;99.90;;;;;;5091795;28;20044;-71
2023/04/13 00:13:13;;;;;;;5.78;2.30;;;7.10;99.90;;;;;;5088768;28;20481;-71
2023/04/13 00:15:43;;;;;;;6.85;1.98;;;7.00;99.90;;;;;;5091829;28;20123;-71
2023/04/13 00:18:09;;;;;;;4.05;1.90;;;7.10;99.90;;;;;;5091750;28;20511;-71
2023/04/13 00:20:35;;;;;;;3.65;1.88;;;7.10;99.90;;;;;;5091736;28;20502;-71
2023/04/13 00:23:01;;;;;;;3.85;1.67;;;7.10;99.90;;;;;;5101362;28;20070;-71
2023/04/13 00:25:26;;;;;;;5.53;2.55;;;7.20;99.90;;;;;;5108648;28;20137;-71
2023/04/13 00:27:52;;;;;;;4.13;2.25;;;7.10;99.90;;;;;;5099570;28;20039;-71
2023/04/13 00:30:18;;;;;;;4.13;2.00;;;7.10;99.90;;;;;;5094569;28;20380;-71
2023/04/13 00:32:45;;;;;;;4.57;2.17;;;7.20;99.90;;;;;;5096577;28;20044;-72
2023/04/13 00:35:15;;;;;;;5.57;1.90;;;7.20;99.90;;;;;;5091251;28;20075;-71
2023/04/13 00:37:43;;;;;;;6.95;2.95;;;7.20;99.90;;;;;;5075009;28;20403;-71
2023/04/13 00:40:10;;;;;;;4.97;2.50;;;7.10;99.90;;;;;;5091629;28;20480;-71
2023/04/13 00:42:36;;;;;;;6.97;2.83;;;7.10;99.90;;;;;;5104079;28;20039;-71
2023/04/13 00:45:01;;;;;;;6.78;2.95;;;7.10;99.90;;;;;;5094114;28;20039;-71
2023/04/13 00:47:31;;;;;;;8.15;3.05;;;7.10;99.90;;;;;;5094096;28;20108;-71
2023/04/13 00:49:59;;;;;;;6.30;2.80;;;7.00;99.90;;;;;;5098064;28;20043;-71
2023/04/13 00:52:24;;;;;;;7.15;3.17;;;7.10;99.90;;;;;;5098611;28;20043;-71
2023/04/13 00:54:51;;;;;;;4.68;2.72;;;7.10;99.90;;;;;;5091083;28;20050;-71
2023/04/13 00:57:19;;;;;;;5.15;2.45;;;7.10;99.90;;;;;;5089664;28;20364;-71
2023/04/13 00:59:48;;;;;;;5.88;2.80;;;7.10;99.90;;;;;;5095576;28;20058;-71
2023/04/13 01:02:15;;;;;;;5.93;2.95;;;7.20;99.90;;;;;;5095520;28;20483;-71
2023/04/13 01:04:41;;;;;;;4.53;2.10;;;7.20;99.90;;;;;;5094855;28;20032;-71
2023/04/13 01:07:18;;;;;;;5.82;2.40;;;7.10;99.90;;;;;;5095356;28;20047;-71
2023/04/13 01:09:55;;;;;;;4.43;1.83;;;7.10;99.90;;;;;;5095090;28;20085;-71
2023/04/13 01:12:31;;;;;;;7.63;2.20;;;7.10;99.90;;;;;;5110026;28;20114;-71
2023/04/13 01:15:11;;;;;;;5.68;2.03;;;7.10;99.90;;;;;;5118412;27;20043;-71
2023/04/13 01:17:40;;;;;;;5.00;2.10;;;7.10;99.90;;;;;;5098256;28;20084;-71
2023/04/13 01:20:09;;;;;;;6.63;2.58;;;7.10;99.90;;;;;;5098204;28;20032;-71
2023/04/13 01:22:38;;;;;;;4.03;1.90;;;7.10;99.90;;;;;;5096607;28;20036;-71
2023/04/13 01:25:21;;;;;;;5.15;1.92;;;7.10;99.90;;;;;;5094553;28;20032;-71
2023/04/13 01:27:54;;;;;;;4.32;1.70;;;7.20;99.90;;;;;;5094988;28;20055;-71
2023/04/13 01:30:21;;;;;;;;;;;7.20;99.90;;;;;;5077918;28;20039;-71
2023/04/13 01:32:48;;;;;;;3.63;1.67;;;7.20;99.90;;;;;;5108001;28;19920;-70
2023/04/13 01:35:14;;;;;;;2.20;1.23;;;7.10;99.90;;;;;;5094482;28;20035;-70
2023/04/13 01:37:42;;;;;;;6.50;2.10;;;7.20;99.90;;;;;;5094667;28;20116;-70
2023/04/13 01:40:12;;;;;;;3.33;1.55;;;7.20;99.90;;;;;;5094562;28;20494;-70
2023/04/13 01:42:44;;;;;;;3.58;1.63;;;7.10;99.90;;;;;;5093866;28;20043;-70
2023/04/13 01:45:42;;;;;;;3.00;1.23;;;7.20;99.90;;;;;;5111334;28;20068;-70
2023/04/13 01:48:13;;;;;;;6.40;1.75;;;7.20;99.90;;;;;;5094671;28;20043;-70
2023/04/13 01:50:40;;;;;;;3.50;1.30;;;7.10;99.90;;;;;;5094268;28;20047;-70
2023/04/13 01:53:10;;;;;;;3.33;1.50;;;7.20;99.90;;;;;;5096298;28;20070;-70
2023/04/13 01:55:38;;;;;;;5.18;1.60;;;7.10;99.90;;;;;;5096329;28;20076;-70
2023/04/13 01:58:05;;;;;;;4.72;1.38;;;7.10;99.90;;;;;;5114131;28;20054;-70
2023/04/13 02:00:35;;;;;;;5.35;1.58;;;7.10;99.90;;;;;;5097411;28;20081;-70
2023/04/13 02:03:08;;;;;;;4.75;1.30;;;7.10;99.90;;;;;;5093475;28;20032;-70
2023/04/13 02:05:37;;;;;;;2.78;0.95;;;7.00;99.90;;;;;;5093853;28;20081;-70
2023/04/13 02:08:04;;;;;;;4.68;1.50;;;7.00;99.90;;;;;;5077032;28;20032;-70
2023/04/13 02:10:31;;;;;;;2.17;0.73;;;7.00;99.90;;;;;;5093858;28;20047;-70
2023/04/13 02:12:57;;;;;;;3.15;1.20;;;7.10;99.90;;;;;;5106743;28;20495;-70
2023/04/13 02:15:23;;;;;;;5.35;1.10;;;7.00;99.90;;;;;;5094051;28;20437;-70
2023/04/13 02:17:49;;;;;;;4.25;1.30;;;7.10;99.90;;;;;;5093613;28;20560;-70
2023/04/13 02:20:15;;;;;;;2.90;1.17;;;7.00;99.90;;;;;;5093645;28;20074;-70
2023/04/13 02:22:42;;;;;;;2.58;0.98;;;7.00;99.90;;;;;;5106806;28;20036;-70
2023/04/13 02:25:10;;;;;;;3.55;1.20;;;7.10;99.90;;;;;;5075767;28;20063;-70
2023/04/13 02:27:37;;;;;;;2.83;1.00;;;7.00;99.90;;;;;;5093485;28;20053;-69
2023/04/13 02:30:05;;;;;;;5.80;1.33;;;7.00;99.90;;;;;;5093752;28;20122;-71
2023/04/13 02:32:31;;;;;;;3.05;1.30;;;7.00;99.90;;;;;;5093458;28;20131;-71
2023/04/13 02:34:58;;;;;;;4.15;1.23;;;7.00;99.90;;;;;;5092954;28;20089;-70
2023/04/13 02:37:24;;;;;;;3.88;1.60;;;7.00;99.90;;;;;;5093593;28;20530;-70
2023/04/13 02:39:50;;;;;;;1.27;0.93;;;7.00;99.90;;;;;;5093752;28;20132;-70
2023/04/13 02:42:16;;;;;;;3.28;1.08;;;7.10;99.90;;;;;;5095916;28;20040;-71
2023/04/13 02:44:42;;;;;;;3.50;1.38;;;7.10;99.90;;;;;;5112195;28;20088;-71
2023/04/13 02:47:08;;;;;;;2.28;1.00;;;7.10;99.90;;;;;;5096510;28;20039;-71
2023/04/13 02:49:34;;;;;;;3.22;1.25;;;7.00;99.90;;;;;;5113647;28;20119;-71
2023/04/13 02:51:59;;;;;;;3.08;1.30;;;6.90;99.90;;;;;;5104600;28;20499;-71
2023/04/13 02:54:25;;;;;;;4.60;1.40;;;6.90;99.90;;;;;;5092537;28;20063;-71
2023/04/13 02:56:51;;;;;;;3.40;1.20;;;6.90;99.90;;;;;;5112548;28;20088;-71
2023/04/13 02:59:16;;;;;;;2.90;1.30;;;7.00;99.90;;;;;;5113295;28;20046;-71
2023/04/13 03:01:44;;;;;;;1.52;0.68;;;7.10;99.90;;;;;;5085656;28;20428;-71
2023/04/13 03:04:10;;;;;;;5.43;1.50;;;7.10;99.90;;;;;;5105902;28;20492;-72
2023/04/13 03:06:36;;;;;;;4.38;1.20;;;7.00;99.90;;;;;;5113075;28;20035;-71
2023/04/13 03:09:02;;;;;;;4.68;1.30;;;7.00;99.90;;;;;;5095741;28;20035;-71
2023/04/13 03:11:27;;;;;;;4.45;1.35;;;6.90;99.90;;;;;;5088578;28;20411;-71
2023/04/13 03:13:53;;;;;;;2.75;1.17;;;7.00;99.90;;;;;;5092737;28;20036;-71
2023/04/13 03:16:19;;;;;;;4.28;1.52;;;7.00;99.90;;;;;;5092518;28;20042;-71
2023/04/13 03:18:45;;;;;;;5.03;1.30;;;7.00;99.90;;;;;;5092090;28;20036;-71
2023/04/13 03:21:11;;;;;;;3.03;1.13;;;6.90;99.90;;;;;;5092558;28;20100;-71
2023/04/13 03:23:37;;;;;;;3.97;1.15;;;7.00;99.90;;;;;;5092810;28;20391;-71
2023/04/13 03:26:03;;;;;;;2.50;1.10;;;7.00;99.90;;;;;;5100614;28;20035;-70
2023/04/13 03:28:28;;;;;;;4.07;1.15;;;7.10;99.90;;;;;;5075894;28;20036;-71
2023/04/13 03:30:54;;;;;;;2.97;1.30;;;7.10;99.90;;;;;;5091813;28;20044;-71
2023/04/13 03:33:20;;;;;;;3.25;1.10;;;7.00;99.90;;;;;;5102811;28;20119;-70
2023/04/13 03:35:46;;;;;;;3.08;1.08;;;7.10;99.90;;;;;;5112573;28;20039;-70
2023/04/13 03:38:11;;;;;;;4.85;1.50;;;7.00;99.90;;;;;;5112619;28;20048;-70
2023/04/13 03:40:37;;;;;;;2.97;1.23;;;7.00;99.90;;;;;;5112605;28;20035;-71
2023/04/13 03:43:03;;;;;;;3.53;1.05;;;7.00;99.90;;;;;;5075350;28;20423;-70
2023/04/13 03:45:28;;;;;;;2.35;1.30;;;7.10;99.90;;;;;;5092196;28;20047;-70
2023/04/13 03:47:54;;;;;;;3.13;1.50;;;7.10;99.90;;;;;;5097683;28;20035;-71
2023/04/13 03:50:19;;;;;;;2.25;1.27;;;7.10;99.90;;;;;;5090868;28;20039;-70
2023/04/13 03:52:45;;;;;;;5.50;1.17;;;7.10;99.90;;;;;;5108876;28;20148;-70
2023/04/13 03:55:10;;;;;;;2.67;1.10;;;7.20;99.90;;;;;;5114059;28;20411;-70
2023/04/13 03:57:36;;;;;;;1.95;1.10;;;7.20;99.90;;;;;;5097173;28;20040;-70
2023/04/13 04:00:02;;;;;;;3.15;1.48;;;7.20;99.90;;;;;;5100141;28;20023;-70
2023/04/13 04:02:28;;;;;;;2.88;1.10;;;7.20;99.90;;;;;;5093355;28;20047;-70
2023/04/13 04:04:53;;;;;;;2.90;1.10;;;7.10;99.90;;;;;;5092677;28;20040;-70
2023/04/13 04:07:22;;;;;;;2.00;1.00;;;7.10;99.90;;;;;;5098927;28;20039;-70
2023/04/13 04:09:47;;;;;;;1.73;1.17;;;7.30;99.90;;;;;;5094603;28;20043;-70
2023/04/13 04:12:13;;;;;;;2.35;1.20;;;7.20;99.90;;;;;;5088616;28;20039;-70
2023/04/13 04:14:38;;;;;;;2.78;1.27;;;7.20;99.90;;;;;;5091628;28;20132;-70
2023/04/13 04:17:04;;;;;;;2.50;1.40;;;7.20;99.90;;;;;;5092330;28;20162;-70
2023/04/13 04:19:30;;;;;;;3.50;1.17;;;7.20;99.90;;;;;;5092774;28;20047;-70
2023/04/13 04:21:56;;;;;;;3.25;1.38;;;7.20;99.90;;;;;;5093613;28;20046;-70
2023/04/13 04:24:22;;;;;;;3.58;1.60;;;7.30;99.90;;;;;;5103976;27;20051;-70
2023/04/13 04:26:49;;;;;;;6.13;1.63;;;7.30;99.90;;;;;;5104943;28;20031;-70
2023/04/13 04:29:20;;;;;;;2.35;1.40;;;7.20;99.90;;;;;;5112297;28;20047;-70
2023/04/13 04:31:51;;;;;;;3.97;1.42;;;7.20;99.90;;;;;;5112225;27;20093;-70
2023/04/13 04:34:18;;;;;;;2.50;1.42;;;7.20;99.90;;;;;;5114390;28;20050;-70
2023/04/13 04:36:49;;;;;;;2.63;1.30;;;7.10;99.90;;;;;;5105033;28;20036;-70
2023/04/13 04:39:22;;;;;;;2.65;1.42;;;7.20;99.90;;;;;;5107207;28;20547;-70
2023/04/13 04:41:53;;;;;;;2.65;1.27;;;7.20;99.90;;;;;;5098542;28;20036;-70
2023/04/13 04:44:19;;;;;;;3.13;1.45;;;7.20;99.90;;;;;;5095332;28;20044;-70
2023/04/13 04:46:47;;;;;;;3.40;1.73;;;7.20;99.90;;;;;;5082122;28;20043;-70
2023/04/13 04:49:13;;;;;;;2.85;1.58;;;7.10;99.90;;;;;;5088790;28;20035;-70
2023/04/13 04:51:39;;;;;;;2.13;1.38;;;7.10;99.90;;;;;;5104465;28;20043;-70
2023/04/13 04:54:06;;;;;;;5.45;1.80;;;7.10;99.90;;;;;;5104069;28;20526;-70
2023/04/13 04:56:31;;;;;;;3.15;1.73;;;7.10;99.90;;;;;;5097241;28;20043;-70
2023/04/13 04:58:57;;;;;;;5.28;2.08;;;7.10;99.90;;;;;;5111693;28;20066;-70
2023/04/13 05:01:25;;;;;;;5.13;2.20;;;7.10;99.90;;;;;;5095116;28;20063;-70
2023/04/13 05:03:51;;;;;;;3.78;2.20;;;7.20;99.90;;;;;;5111586;28;20106;-70
2023/04/13 05:06:18;;;;;;;3.22;1.83;;;7.10;99.90;;;;;;5097676;28;20455;-70
2023/04/13 05:08:43;;;;;;;4.95;2.17;;;7.20;99.90;;;;;;5115317;28;20372;-70
2023/04/13 05:11:09;;;;;;;5.57;2.33;;;7.20;99.90;;;;;;5102091;28;20043;-70
2023/04/13 05:13:35;;;;;;;5.13;2.15;;;7.20;99.90;;;;;;5113503;28;20127;-72
2023/04/13 05:16:01;;;;;;;5.57;2.58;;;7.20;99.90;;;;;;5114473;27;20036;-68
2023/04/13 05:18:31;;;;;;;6.15;2.33;;;7.20;99.90;;;;;;5080356;28;20106;-68
2023/04/13 05:20:57;;;;;;;4.95;2.20;;;7.20;99.90;;;;;;5093621;28;20039;-68
2023/04/13 05:23:23;;;;;;;7.65;2.83;;;7.20;99.90;;;;;;5106860;28;20193;-68
2023/04/13 05:25:50;;;;;;;4.18;2.30;;;7.20;99.90;;;;;;5096441;28;20403;-68
2023/04/13 05:28:16;;;;;;;5.97;2.78;;;7.20;99.90;;;;;;5110134;28;20051;-68
2023/04/13 05:30:41;;;;;;;3.67;2.10;;;7.20;99.90;;;;;;5096690;28;20055;-68
2023/04/13 05:33:08;;;;;;;5.93;2.42;;;7.20;99.90;;;;;;5081052;28;20036;-68
2023/04/13 05:35:33;;;;;;;5.00;2.55;;;7.20;99.90;;;;;;5108448;28;20181;-68
2023/04/13 05:37:59;;;;;;;4.13;2.25;;;7.10;99.90;;;;;;5093805;28;20127;-68
2023/04/13 05:40:25;;;;;;;6.47;2.55;;;7.10;99.90;;;;;;5103375;28;20036;-69
2023/04/13 05:42:50;;;;;;;6.82;2.80;;;7.20;99.90;;;;;;5087808;28;20035;-68
2023/04/13 05:45:16;;;;;;;6.07;3.63;;;7.20;99.90;;;;;;5111046;28;20035;-68
2023/04/13 05:47:43;;;;;;;4.75;2.30;;;7.20;99.90;;;;;;5116405;27;20032;-68
2023/04/13 05:50:09;;;;;;;6.60;2.45;;;7.20;99.90;;;;;;5093927;28;20386;-68
2023/04/13 05:52:35;;;;;;;5.68;2.55;;;7.20;99.90;;;;;;5113872;27;20043;-69
2023/04/13 05:55:01;;;;;;;5.88;2.50;;;7.20;99.90;;;;;;5110377;28;20051;-69
2023/04/13 05:57:26;;;;;;;4.32;2.30;;;7.30;99.90;;;;;;5094213;28;20043;-69
2023/04/13 05:59:52;;;;;;;5.45;2.25;;;7.30;99.90;;;;;;5107464;28;20031;-69
2023/04/13 06:02:19;;;;;;;5.28;2.22;;;7.30;99.90;;;;;;5097633;28;20032;-69
2023/04/13 06:04:45;;;;;;;6.22;3.30;;;7.30;99.90;;;;;;5080862;28;20043;-69
2023/04/13 06:07:13;;;;;;;7.53;3.15;;;7.30;99.90;;;;;;5088936;28;20073;-70
2023/04/13 06:09:39;;;;;;;6.10;2.33;;;7.40;99.90;;;;;;5110795;27;20044;-70
2023/04/13 06:12:04;;;;;;;5.07;1.90;;;7.40;99.90;;;;;;5091804;28;20042;-69
2023/04/13 06:14:30;;;;;;;7.15;2.72;;;7.50;99.90;;;;;;5108767;28;20047;-70
2023/04/13 06:16:56;;;;;;;7.72;2.50;;;7.60;99.90;;;;;;5102995;27;20044;-69
2023/04/13 06:19:21;;;;;;;7.70;2.65;;;7.60;99.90;;;;;;5109111;28;20131;-69
2023/04/13 06:21:47;;;;;;;5.88;2.03;;;7.60;99.90;;;;;;5095387;28;20032;-70
2023/04/13 06:24:13;;;;;;;7.70;2.97;;;7.70;99.90;;;;;;5093194;28;20048;-70
2023/04/13 06:26:38;;;;;;;5.00;2.00;;;7.60;99.90;;;;;;5113781;28;20027;-70
2023/04/13 06:29:04;;;;;;;7.90;2.47;;;7.70;99.90;;;;;;5112340;28;20047;-70
2023/04/13 06:31:29;;;;;;;4.72;2.00;;;7.70;99.90;;;;;;5110948;28;20408;-70
2023/04/13 06:33:55;;;;;;;6.57;2.40;;;7.70;99.90;;;;;;5092657;28;20042;-69
2023/04/13 06:36:21;;;;;;;7.80;2.20;;;7.80;99.90;;;;;;5112584;28;20047;-70
2023/04/13 06:38:46;;;;;;;6.03;2.30;;;7.80;99.90;;;;;;5088281;28;20035;-70
2023/04/13 06:41:12;;;;;;;6.90;2.70;;;7.80;99.90;;;;;;5109687;27;20491;-70
2023/04/13 06:43:37;;;;;;;6.25;2.13;;;7.80;99.90;;;;;;5082683;28;20481;-70
2023/04/13 06:46:03;;;;;;;7.07;2.22;;;7.90;99.90;;;;;;5105935;28;20031;-70
2023/04/13 06:48:29;;;;;;;8.30;2.72;;;7.90;99.90;;;;;;5113291;28;20130;-70
2023/04/13 06:50:56;;;;;;;7.57;3.35;;;7.80;99.90;;;;;;5109871;28;20038;-70
2023/04/13 06:53:22;;;;;;;8.25;3.80;;;7.80;99.90;;;;;;5110966;28;20067;-69
2023/04/13 06:55:47;;;;;;;5.57;2.63;;;7.90;99.90;;;;;;5090241;28;20101;-70
2023/04/13 06:58:13;;;;;;;7.65;3.05;;;8.00;99.90;;;;;;5107167;28;20040;-70
2023/04/13 07:00:39;;;;;;;7.60;3.15;;;8.00;99.90;;;;;;5083089;28;20050;-69
2023/04/13 07:03:04;;;;;;;9.45;3.63;;;8.00;99.90;;;;;;5109901;28;20036;-70
2023/04/13 07:05:31;;;;;;;6.88;2.38;;;8.00;99.90;;;;;;5111772;28;20035;-70
2023/04/13 07:07:57;;;;;;;4.03;1.63;;;8.10;99.90;;;;;;5108732;28;20498;-69
2023/04/13 07:10:22;;;;;;;9.73;2.65;;;8.30;99.90;;;;;;5108332;27;20071;-70
2023/04/13 07:12:48;;;;;;;7.30;1.92;;;8.30;99.90;;;;;;5108833;27;20063;-69
2023/04/13 07:15:14;;;;;;;5.20;2.03;;;8.50;99.90;;;;;;5095765;28;20058;-70
2023/04/13 07:17:40;;;;;;;3.53;1.65;;;8.60;99.90;;;;;;5109574;28;20407;-70
2023/04/13 07:20:06;;;;;;;7.13;1.80;;;8.70;99.90;;;;;;5097698;28;20039;-70
2023/04/13 07:22:34;;;;;;;8.20;2.67;;;8.70;99.90;;;;;;5111527;28;20043;-70
2023/04/13 07:25:00;;;;;;;3.75;1.33;;;8.90;99.90;;;;;;5086948;28;20028;-70
2023/04/13 07:27:26;;;;;;;2.83;1.23;;;8.90;99.90;;;;;;5092440;28;20285;-69
2023/04/13 07:29:52;;;;;;;6.30;2.00;;;9.00;99.90;;;;;;5107901;28;20487;-69
2023/04/13 07:32:18;;;;;;;8.35;1.98;;;9.00;99.90;;;;;;5098687;28;20054;-70
2023/04/13 07:34:44;;;;;;;8.30;2.92;;;9.00;99.90;;;;;;5119872;27;20118;-70
2023/04/13 07:37:10;;;;;;;8.57;2.08;;;9.00;99.90;;;;;;5097964;28;20622;-70
2023/04/13 07:39:35;;;;;;;5.95;1.65;;;9.00;99.90;;;;;;5074421;28;20040;-70
2023/04/13 07:42:01;;;;;;;6.03;1.75;;;9.10;99.90;;;;;;5090622;28;20044;-70
2023/04/13 07:44:27;;;;;;;3.72;2.10;;;9.10;99.90;;;;;;5108466;28;20046;-70
2023/04/13 07:46:55;;;;;;;7.22;2.20;;;9.20;99.90;;;;;;5074369;28;20028;-70
2023/04/13 07:49:22;;;;;;;6.07;1.80;;;9.10;99.90;;;;;;5102943;28;20039;-70
2023/04/13 07:51:48;;;;;;;3.05;1.20;;;9.30;99.90;;;;;;5107442;28;20043;-70
2023/04/13 07:54:15;;;;;;;3.78;1.42;;;9.30;99.90;;;;;;5091404;28;20566;-70
2023/04/13 07:56:40;;;;;;;4.22;1.30;;;9.30;99.90;;;;;;5074117;28;20403;-70
2023/04/13 07:59:06;;;;;;;11.27;1.77;;;9.20;99.90;;;;;;5097445;28;20118;-70
2023/04/13 08:01:31;;;;;;;3.08;0.90;;;9.30;99.90;;;;;;5094866;28;20040;-70
2023/04/13 08:03:57;;;;;;;3.78;1.30;;;9.40;99.90;;;;;;5120995;28;20036;-70
2023/04/13 08:06:23;;;;;;;4.22;1.50;;;9.30;99.90;;;;;;5106264;28;20101;-70
2023/04/13 08:08:48;;;;;;;5.70;1.80;;;9.20;99.90;;;;;;5109929;28;20047;-70
2023/04/13 08:11:14;;;;;;;3.97;1.42;;;9.10;99.90;;;;;;5108593;28;20412;-70
2023/04/13 08:13:40;;;;;;;4.63;1.50;;;8.90;99.90;;;;;;5101826;28;20040;-70
2023/04/13 08:16:07;;;;;;;3.03;1.50;;;8.80;99.90;;;;;;5095656;28;20051;-70
2023/04/13 08:18:33;;;;;;;8.55;2.15;;;8.80;99.90;;;;;;5091885;28;20036;-70
2023/04/13 08:20:58;;;;;;;10.57;2.30;;;8.70;99.90;;;;;;5097448;28;20040;-70
2023/04/13 08:23:24;;;;;;;6.60;2.03;;;8.70;99.90;;;;;;5094055;28;20028;-70
2023/04/13 08:25:50;;;;;;;2.35;1.13;;;8.80;99.90;;;;;;5097715;28;20094;-69
2023/04/13 08:28:16;;;;;;;6.40;1.80;;;8.90;99.90;;;;;;5112133;28;20074;-70
2023/04/13 08:30:41;;;;;;;5.03;1.77;;;9.10;99.90;;;;;;5111830;28;20475;-70
2023/04/13 08:33:08;;;;;;;3.63;1.60;;;9.20;99.90;;;;;;5111643;28;20126;-70
2023/04/13 08:35:38;;;;;;;6.80;2.20;;;9.20;99.90;;;;;;5111979;28;20040;-70
2023/04/13 08:38:06;;;;;;;6.47;2.30;;;9.20;99.90;;;;;;5110612;28;20141;-69
2023/04/13 08:40:36;;;;;;;2.95;1.48;;;9.10;99.90;;;;;;5100717;28;20065;-70
2023/04/13 08:43:02;;;;;;;6.90;1.90;;;9.10;99.90;;;;;;5112040;28;20040;-70
2023/04/13 08:45:29;;;;;;;2.90;1.33;;;8.90;99.90;;;;;;5093951;28;20042;-70
2023/04/13 08:47:56;;;;;;;4.57;1.67;;;8.90;99.90;;;;;;5111819;28;20440;-70
2023/04/13 08:50:24;;;;;;;3.08;1.33;;;8.80;99.90;;;;;;5094491;28;20039;-70
2023/04/13 08:52:50;;;;;;;3.67;1.58;;;8.80;99.90;;;;;;5094643;28;20060;-69
2023/04/13 08:55:16;;;;;;;2.25;0.88;;;8.80;99.90;;;;;;5092385;28;20139;-70
2023/04/13 08:57:46;;;;;;;5.32;1.83;;;8.80;99.90;;;;;;5090972;28;20036;-70
2023/04/13 09:00:15;;;;;;;3.95;1.30;;;8.80;99.90;;;;;;5096877;28;20042;-70
2023/04/13 09:02:46;;;;;;;3.17;0.90;;;8.70;99.90;;;;;;5111703;28;20070;-70
2023/04/13 09:05:14;;;;;;;4.75;1.50;;;8.70;99.90;;;;;;5094489;28;20071;-70
2023/04/13 09:07:42;;;;;;;3.75;1.20;;;8.70;99.90;;;;;;5113263;28;20032;-70
2023/04/13 09:10:08;;;;;;;3.35;1.20;;;8.70;99.90;;;;;;5098004;28;20027;-70
2023/04/13 09:12:34;;;;;;;1.90;0.57;;;8.70;99.90;;;;;;5097781;28;20040;-70
2023/04/13 09:15:01;;;;;;;2.83;1.08;;;8.90;99.90;;;;;;5097049;28;20445;-69
2023/04/13 09:17:31;;;;;;;2.83;0.90;;;8.90;99.90;;;;;;5098361;28;20085;-70
2023/04/13 09:20:15;;;;;;;0.88;0.60;;;9.00;99.90;;;;;;5097713;28;20035;-70
2023/04/13 09:22:41;;;;;;;4.05;0.70;;;9.20;99.90;;;;;;5097879;28;20044;-70
2023/04/13 09:25:18;;;;;;;1.30;0.50;;;9.30;99.90;;;;;;5098181;28;20149;-70
2023/04/13 09:27:43;;;;;;;1.13;0.40;;;9.30;99.90;;;;;;5097289;28;20040;-70
2023/04/13 09:30:10;;;;;;;1.73;0.40;;;9.30;99.90;;;;;;5081302;28;20042;-70
2023/04/13 09:32:36;;;;;;;1.75;0.65;;;9.30;99.90;;;;;;5115046;28;20043;-70
2023/04/13 09:35:06;;;;;;;1.73;0.63;;;9.40;99.90;;;;;;5097863;28;20039;-70
2023/04/13 09:37:34;;;;;;;2.33;0.60;;;9.50;99.90;;;;;;5114485;28;20035;-70
2023/04/13 09:40:13;;;;;;;2.47;0.60;;;9.60;99.90;;;;;;5114634;28;20071;-70
2023/04/13 09:42:54;;;;;;;1.23;0.60;;;9.80;99.90;;;;;;5097462;28;20651;-70
2023/04/13 09:45:20;;;;;;;3.45;0.85;;;9.80;99.90;;;;;;5114856;28;20042;-70
2023/04/13 09:47:46;;;;;;;1.00;0.65;;;9.70;99.90;;;;;;5096838;28;20036;-70
2023/04/13 09:50:21;;;;;;;2.60;0.77;;;9.70;99.90;;;;;;5112784;28;20193;-70
2023/04/13 09:52:57;;;;;;;0.88;0.40;;;9.70;99.90;;;;;;5083032;28;20052;-70
2023/04/13 09:55:23;;;;;;;1.38;0.65;;;9.90;99.90;;;;;;5109380;28;20035;-69
2023/04/13 09:57:48;;;;;;;1.75;0.73;;;10.00;99.90;;;;;;5105391;28;20488;-69
2023/04/13 10:00:20;;;;;;;0.98;0.50;;;10.10;99.90;;;;;;5096315;28;20042;-69
2023/04/13 10:02:48;;;;;;;4.13;0.93;;;10.30;99.90;;;;;;5106414;28;20092;-69
2023/04/13 10:05:14;;;;;;;3.97;0.90;;;10.30;99.90;;;;;;5098989;28;20040;-69
2023/04/13 10:07:43;;;;;;;4.03;1.02;;;10.10;99.90;;;;;;5096621;28;20404;-70
2023/04/13 10:10:09;;;;;;;2.35;0.75;;;9.80;99.90;;;;;;5083936;28;20032;-70
2023/04/13 10:12:37;;;;;;;3.35;0.70;;;9.70;99.90;;;;;;5108587;27;20088;-70
2023/04/13 10:15:24;;;;;;;5.05;0.95;;;9.30;99.90;;;;;;5102084;28;20468;-70
2023/04/13 10:18:21;;;;;;;4.22;0.80;;;9.10;99.90;;;;;;5110153;27;20392;-69
2023/04/13 10:20:48;;;;;;;1.88;0.60;;;9.00;99.90;;;;;;5110343;28;20032;-70
2023/04/13 10:23:14;;;;;;;1.77;0.55;;;8.90;99.90;;;;;;5102369;28;20036;-70
2023/04/13 10:25:53;;;;;;;3.08;0.70;;;8.90;99.90;;;;;;5093215;28;20399;-70
2023/04/13 10:28:19;;;;;;;1.52;0.50;;;8.90;99.90;;;;;;5092543;28;20040;-70
2023/04/13 10:30:52;;;;;;;3.45;0.80;;;8.90;99.90;;;;;;5099281;28;20454;-70
2023/04/13 10:33:18;;;;;;;1.92;0.70;;;8.90;99.90;;;;;;5095040;28;20078;-70
2023/04/13 10:35:55;;;;;;;2.20;0.70;;;8.90;99.90;;;;;;5110095;28;20049;-70
2023/04/13 10:38:21;;;;;;;2.50;0.80;;;8.80;99.90;;;;;;5097899;28;20608;-70
2023/04/13 10:40:47;;;;;;;2.20;0.50;;;8.80;99.90;;;;;;5113981;27;20046;-70
2023/04/13 10:43:33;;;;;;;2.85;0.63;;;8.70;99.90;;;;;;5102844;28;20038;-70
2023/04/13 10:46:11;;;;;;;3.28;0.50;;;8.60;99.90;;;;;;5120210;27;20036;-71
2023/04/13 10:48:39;;;;;;;3.75;0.60;;;8.60;99.90;;;;;;5096342;28;20032;-71
2023/04/13 10:51:05;;;;;;;0.55;0.32;;;8.40;99.90;;;;;;5097473;28;20044;-71
2023/04/13 10:53:32;;;;;;;1.92;0.57;;;8.30;99.90;;;;;;5104182;28;20074;-71
2023/04/13 10:55:58;;;;;;;2.30;0.65;;;8.30;99.90;;;;;;5108269;28;20044;-71
2023/04/13 10:58:25;;;;;;;2.15;0.70;;;8.30;99.90;;;;;;5105137;28;20051;-71
2023/04/13 11:00:51;;;;;;;2.50;0.70;;;8.50;99.90;;;;;;5082316;28;20496;-71
2023/04/13 11:03:19;;;;;;;3.88;1.00;;;8.50;99.90;;;;;;5076303;28;20039;-71
2023/04/13 11:05:47;;;;;;;5.10;0.90;;;8.50;99.90;;;;;;5079211;28;20035;-70
2023/04/13 11:08:19;;;;;;;4.88;1.02;;;8.50;99.90;;;;;;5111638;27;20084;-70
2023/04/13 11:10:53;;;;;;;6.15;0.98;;;8.60;99.90;;;;;;5126079;27;20027;-70
2023/04/13 11:13:19;;;;;;;6.35;1.13;;;8.70;99.90;;;;;;5105427;27;20036;-70
2023/04/13 11:15:45;;;;;;;8.48;1.45;;;8.90;99.90;;;;;;5093209;28;20040;-70
2023/04/13 11:18:11;;;;;;;9.30;1.45;;;9.00;99.90;;;;;;5094134;28;20046;-71
2023/04/13 11:20:38;;;;;;;6.65;1.58;;;9.20;99.90;;;;;;5111912;28;20434;-70
2023/04/13 11:23:17;;;;;;;8.77;1.73;;;9.10;99.90;;;;;;5111588;28;20092;-70
2023/04/13 11:26:00;;;;;;;8.93;1.80;;;9.20;99.90;;;;;;5101768;28;20526;-70
2023/04/13 11:28:35;;;;;;;;;;;9.40;99.90;;;;;;5092804;28;20407;-70
2023/04/13 11:31:01;;;;;;;9.75;1.88;;;9.70;99.90;;;;;;5093387;28;19916;-70
2023/04/13 11:33:29;;;;;;;8.05;1.60;;;9.90;99.90;;;;;;5091686;28;20031;-70
2023/04/13 11:36:00;;;;;;;6.32;1.65;;;9.90;99.90;;;;;;5083274;28;20032;-70
2023/04/13 11:38:26;;;;;;;8.45;1.52;;;10.10;99.90;;;;;;5102051;28;20039;-70
2023/04/13 11:41:02;;;;;;;9.70;1.80;;;10.20;99.90;;;;;;5092802;28;20484;-70
2023/04/13 11:43:28;;;;;;;8.73;1.52;;;10.20;99.90;;;;;;5083783;28;20525;-70
2023/04/13 11:45:54;;;;;;;6.53;1.27;;;10.20;99.90;;;;;;5107053;28;20110;-69
2023/04/13 11:48:20;;;;;;;5.30;1.40;;;10.30;99.90;;;;;;5091069;28;20108;-70
2023/04/13 11:50:48;;;;;;;9.60;1.80;;;10.30;99.90;;;;;;5091092;28;20044;-69
2023/04/13 11:53:14;;;;;;;11.00;2.40;;;10.20;99.90;;;;;;5075059;28;20088;-69
2023/04/13 11:55:40;;;;;;;8.05;1.80;;;10.30;99.90;;;;;;5121878;27;20105;-69
2023/04/13 11:58:14;;;;;;;12.50;2.20;;;10.40;99.90;;;;;;5091489;28;20044;-69
2023/04/13 12:00:40;;;;;;;4.57;1.42;;;10.50;99.90;;;;;;5111298;27;20084;-69
2023/04/13 12:03:14;;;;;;;5.00;1.25;;;10.50;99.90;;;;;;5095477;28;20047;-69
2023/04/13 12:05:41;;;;;;;7.15;1.75;;;10.50;99.90;;;;;;5105592;28;20064;-69
2023/04/13 12:08:07;;;;;;;10.57;1.70;;;10.30;99.90;;;;;;5102964;28;20380;-69
2023/04/13 12:10:35;;;;;;;9.00;1.75;;;10.30;99.90;;;;;;5094688;28;20027;-69
2023/04/13 12:13:07;;;;;;;6.07;1.50;;;10.30;99.90;;;;;;5097494;28;20036;-69
2023/04/13 12:15:34;;;;;;;8.50;1.67;;;10.40;99.90;;;;;;5095231;28;20484;-69
2023/04/13 12:18:01;;;;;;;6.75;1.92;;;10.40;99.90;;;;;;5102447;28;20044;-69
2023/04/13 12:20:38;;;;;;;4.57;1.30;;;10.50;99.90;;;;;;5099881;28;20036;-69
2023/04/13 12:23:19;;;;;;;7.15;1.40;;;10.50;99.90;;;;;;5111982;28;20051;-69
2023/04/13 12:25:59;;;;;;;10.15;1.77;;;10.30;99.90;;;;;;5076999;28;20071;-69
2023/04/13 12:28:33;;;;;;;6.97;1.65;;;10.30;99.90;;;;;;5090926;28;20422;-69
2023/04/13 12:31:10;;;;;;;8.10;1.50;;;10.20;99.90;;;;;;5093125;28;20052;-69
2023/04/13 12:33:37;;;;;;;8.80;1.70;;;10.10;99.90;;;;;;5074683;28;20040;-70
2023/04/13 12:36:05;;;;;;;7.78;1.20;;;10.20;99.90;;;;;;5109860;28;20092;-69
2023/04/13 12:38:31;;;;;;;8.15;1.15;;;10.30;99.90;;;;;;5080240;28;20035;-70
2023/04/13 12:41:00;;;;;;;7.82;1.00;;;10.40;99.90;;;;;;5111561;28;20087;-69
2023/04/13 12:43:27;;;;;;;9.00;1.33;;;10.20;99.90;;;;;;5097770;28;20032;-69
2023/04/13 12:45:53;;;;;;;6.97;1.10;;;10.10;99.90;;;;;;5109226;28;20036;-69
2023/04/13 12:48:21;;;;;;;5.97;1.10;;;10.00;99.90;;;;;;5113713;28;20403;-69
2023/04/13 12:50:47;;;;;;;8.05;1.60;;;10.10;99.90;;;;;;5113174;27;20105;-69
2023/04/13 12:53:12;;;;;;;9.43;1.98;;;10.10;99.90;;;;;;5121175;27;20580;-69
2023/04/13 12:55:38;;;;;;;10.23;1.77;;;10.20;99.90;;;;;;5093091;28;20040;-69
2023/04/13 12:58:04;;;;;;;9.07;1.83;;;10.10;99.90;;;;;;5109158;28;20496;-69